Terminal Aerodrome Forecast
Issued by NWS Jackson, MS

Home | Current Version | Previous Version | Text Only | Print | Product List | Glossary On
Versions: 1 2 3 4 5 6 7 8 9 10 11 12 13 14 15 16 17 18 19 20 21 22 23 24 25 26
000
FTUS44 KJAN 162352
TAFGLH
TAF
KGLH 162352Z 1700/1724 21007KT P6SM SCT080 BKN110
     FM171000 15008KT P6SM VCSH SCT007 BKN015
     FM171400 18009KT P6SM VCSH BKN025 BKN035
     FM171800 18010KT P6SM BKN040 BKN060=

USA.gov is the U.S. government's official web portal to all federal, state and local government web resources and services.